createdAt,value
2017-10-07T00:01:26.790Z,89.00
2017-10-07T00:03:54.324Z,89.00
2017-10-07T00:06:22.659Z,89.20
2017-10-07T00:08:50.187Z,89.20
2017-10-07T00:11:17.725Z,89.00
2017-10-07T00:13:45.303Z,89.00
2017-10-07T00:16:13.891Z,89.70
2017-10-07T00:18:41.431Z,89.50
2017-10-07T00:21:08.984Z,89.00
2017-10-07T00:23:36.708Z,89.80
2017-10-07T00:26:04.245Z,89.50
2017-10-07T00:28:31.809Z,89.50
2017-10-07T00:30:59.351Z,89.70
2017-10-07T00:33:26.884Z,89.70
2017-10-07T00:35:54.470Z,89.60
2017-10-07T00:38:22.003Z,89.60
2017-10-07T00:40:49.530Z,90.00
2017-10-07T00:43:17.860Z,90.00
2017-10-07T00:45:45.399Z,90.00
2017-10-07T00:48:15.313Z,89.70
2017-10-07T00:50:43.638Z,89.40
2017-10-07T00:53:11.175Z,89.50
2017-10-07T00:55:38.699Z,89.50
2017-10-07T00:58:06.290Z,89.50
2017-10-07T01:00:33.814Z,89.20
2017-10-07T01:03:01.338Z,89.10
2017-10-07T01:05:28.904Z,89.20
2017-10-07T01:07:56.434Z,88.40
2017-10-07T01:10:23.975Z,88.90
2017-10-07T01:12:52.307Z,89.20
2017-10-07T01:15:19.843Z,89.10
2017-10-07T01:17:47.513Z,88.90
2017-10-07T01:20:16.475Z,89.70
2017-10-07T01:22:44.013Z,90.10
2017-10-07T01:25:11.543Z,90.20
2017-10-07T01:27:39.871Z,90.40
2017-10-07T01:30:07.415Z,90.40
2017-10-07T01:32:34.951Z,90.20
2017-10-07T01:35:02.503Z,90.30
2017-10-07T01:37:30.031Z,90.10
2017-10-07T01:39:57.559Z,90.20
2017-10-07T01:42:25.134Z,90.30
2017-10-07T01:44:53.343Z,90.50
2017-10-07T01:47:20.875Z,90.50
2017-10-07T01:49:48.446Z,90.40
2017-10-07T01:52:17.178Z,90.40
2017-10-07T01:54:44.719Z,90.40
2017-10-07T01:57:13.959Z,90.00
2017-10-07T01:59:41.490Z,90.00
2017-10-07T02:02:09.022Z,89.80
2017-10-07T02:04:37.001Z,89.70
2017-10-07T02:07:05.303Z,89.80
2017-10-07T02:09:32.835Z,89.80
2017-10-07T02:12:01.171Z,89.80
2017-10-07T02:14:28.707Z,89.80
2017-10-07T02:16:56.238Z,89.70
2017-10-07T02:19:24.111Z,89.60
2017-10-07T02:21:51.642Z,90.00
2017-10-07T02:24:19.175Z,89.90
2017-10-07T02:26:46.786Z,89.80
2017-10-07T02:29:16.311Z,90.10
2017-10-07T02:31:43.841Z,90.10
2017-10-07T02:34:11.407Z,89.70
2017-10-07T02:36:39.694Z,90.00
2017-10-07T02:39:07.987Z,89.80
2017-10-07T02:41:35.539Z,89.80
2017-10-07T02:44:03.843Z,89.70
2017-10-07T02:46:31.380Z,89.70
2017-10-07T02:48:58.974Z,90.00
2017-10-07T02:51:26.507Z,89.60
2017-10-07T02:53:54.036Z,89.80
2017-10-07T02:56:22.359Z,89.60
2017-10-07T02:58:49.899Z,89.60
2017-10-07T03:01:17.433Z,89.30
2017-10-07T03:03:45.760Z,89.00
2017-10-07T03:06:24.320Z,89.20
2017-10-07T03:13:21.552Z,89.10
2017-10-07T03:15:49.091Z,89.20
2017-10-07T03:18:16.629Z,89.30
2017-10-07T03:20:44.333Z,89.10
2017-10-07T03:23:11.875Z,89.00
2017-10-07T03:25:39.415Z,89.10
2017-10-07T03:28:07.747Z,88.80
2017-10-07T03:30:35.459Z,88.70
2017-10-07T03:33:02.999Z,89.10
2017-10-07T03:35:31.043Z,88.50
2017-10-07T03:37:58.571Z,88.80
2017-10-07T03:40:26.103Z,88.70
2017-10-07T03:42:53.700Z,88.50
2017-10-07T03:45:21.227Z,88.10
2017-10-07T03:47:49.523Z,88.30
2017-10-07T03:50:17.098Z,88.20
2017-10-07T03:52:44.635Z,88.50
2017-10-07T03:55:12.165Z,88.60
2017-10-07T03:57:39.781Z,89.10
2017-10-07T04:00:07.315Z,88.90
2017-10-07T04:02:35.623Z,88.50
2017-10-07T04:05:03.174Z,88.50
2017-10-07T04:07:30.703Z,88.20
2017-10-07T04:09:58.230Z,88.10
2017-10-07T04:12:25.786Z,88.40
2017-10-07T04:14:53.324Z,88.00
2017-10-07T04:17:20.859Z,88.60
2017-10-07T04:19:48.443Z,88.70
2017-10-07T04:22:16.923Z,88.70
2017-10-07T04:24:44.446Z,88.80
2017-10-07T04:27:12.024Z,89.00
2017-10-07T04:29:39.562Z,88.80
2017-10-07T04:32:07.091Z,88.80
2017-10-07T04:34:34.647Z,88.70
2017-10-07T04:37:02.187Z,88.90
2017-10-07T04:39:29.723Z,88.70
2017-10-07T04:41:57.310Z,89.10
2017-10-07T04:44:24.839Z,89.10
2017-10-07T04:46:52.363Z,88.80
2017-10-07T04:49:19.928Z,88.70
2017-10-07T04:51:47.466Z,88.70
2017-10-07T04:54:17.232Z,88.90
2017-10-07T04:56:44.787Z,88.90
2017-10-07T04:59:12.319Z,89.00
2017-10-07T05:01:40.611Z,89.40
2017-10-07T05:04:08.952Z,88.90
2017-10-07T05:06:36.754Z,88.90
2017-10-07T05:09:04.287Z,88.90
2017-10-07T05:11:31.860Z,89.00
2017-10-07T05:13:59.402Z,88.90
2017-10-07T05:16:26.940Z,89.10
2017-10-07T05:18:54.501Z,89.20
2017-10-07T05:21:22.042Z,88.80
2017-10-07T05:23:49.787Z,88.90
2017-10-07T05:26:17.412Z,88.90
2017-10-07T05:28:44.971Z,88.80
2017-10-07T05:31:12.508Z,88.60
2017-10-07T05:33:40.208Z,89.10
2017-10-07T05:36:07.754Z,88.70
2017-10-07T05:38:35.282Z,87.90
2017-10-07T05:41:02.839Z,87.80
2017-10-07T05:43:30.375Z,87.70
2017-10-07T05:45:58.060Z,87.80
2017-10-07T05:48:25.691Z,87.30
2017-10-07T05:50:54.167Z,86.90
2017-10-07T05:53:22.655Z,86.60
2017-10-07T05:55:50.343Z,86.60
2017-10-07T05:58:17.867Z,86.50
2017-10-07T06:00:45.400Z,86.20
2017-10-07T06:03:15.392Z,85.80
2017-10-07T06:05:42.914Z,85.80
2017-10-07T06:08:10.539Z,85.90
2017-10-07T06:10:38.120Z,85.70
2017-10-07T06:13:06.573Z,85.70
2017-10-07T06:15:34.159Z,85.60
2017-10-07T06:18:02.479Z,85.70
2017-10-07T06:20:30.102Z,85.80
2017-10-07T06:22:58.508Z,85.90
2017-10-07T06:25:26.387Z,85.80
2017-10-07T06:27:54.166Z,85.20
2017-10-07T06:30:21.727Z,84.60
2017-10-07T06:32:49.303Z,84.10
2017-10-07T06:35:16.835Z,84.10
2017-10-07T06:37:44.367Z,83.50
2017-10-07T06:40:11.947Z,83.00
2017-10-07T06:42:39.484Z,82.50
2017-10-07T06:45:07.023Z,82.20
2017-10-07T06:47:34.600Z,81.80
2017-10-07T06:50:02.898Z,82.10
2017-10-07T06:52:30.437Z,82.10
2017-10-07T06:54:58.791Z,81.80
2017-10-07T06:57:26.323Z,81.70
2017-10-07T06:59:53.859Z,82.00
2017-10-07T07:02:21.420Z,81.10
2017-10-07T07:04:48.942Z,80.50
2017-10-07T07:07:17.243Z,80.10
2017-10-07T07:09:44.805Z,80.10
2017-10-07T07:12:12.343Z,79.00
2017-10-07T07:14:39.882Z,78.00
2017-10-07T07:17:07.491Z,77.80
2017-10-07T07:19:35.023Z,76.80
2017-10-07T07:22:02.556Z,76.40
2017-10-07T07:24:30.120Z,76.10
2017-10-07T07:26:57.799Z,75.50
2017-10-07T07:29:25.471Z,75.40
2017-10-07T07:31:53.022Z,72.10
2017-10-07T07:34:21.314Z,70.90
2017-10-07T07:36:49.613Z,71.40
2017-10-07T07:39:17.195Z,71.40
2017-10-07T07:41:44.714Z,70.20
2017-10-07T07:44:12.245Z,68.30
2017-10-07T07:46:39.903Z,68.20
2017-10-07T07:49:07.574Z,64.00
2017-10-07T07:51:35.132Z,63.00
2017-10-07T07:54:02.717Z,61.80
2017-10-07T07:56:31.551Z,61.70
2017-10-07T07:59:00.145Z,61.70
2017-10-07T08:01:27.884Z,62.70
2017-10-07T08:03:55.456Z,64.50
2017-10-07T08:06:23.136Z,65.40
2017-10-07T08:08:51.481Z,67.00
2017-10-07T08:11:19.032Z,66.90
2017-10-07T08:13:46.566Z,66.40
2017-10-07T08:16:15.575Z,66.90
2017-10-07T08:18:43.596Z,67.70
2017-10-07T08:21:11.119Z,68.10
2017-10-07T08:23:38.727Z,69.50
2017-10-07T08:26:06.267Z,70.20
2017-10-07T08:28:34.122Z,71.20
2017-10-07T08:31:01.675Z,71.80
2017-10-07T08:33:29.209Z,71.40
2017-10-07T08:35:56.743Z,71.60
2017-10-07T08:38:24.346Z,70.40
2017-10-07T08:40:51.874Z,70.80
2017-10-07T08:43:19.402Z,70.20
2017-10-07T08:45:46.979Z,69.90
2017-10-07T08:48:24.586Z,69.70
2017-10-07T08:53:52.841Z,69.70
2017-10-07T08:56:20.367Z,69.70
2017-10-07T08:58:47.898Z,69.70
2017-10-07T09:01:18.379Z,69.60
2017-10-07T09:03:45.912Z,69.50
2017-10-07T09:06:24.468Z,68.80
2017-10-07T09:14:42.056Z,68.80
2017-10-07T09:17:10.363Z,67.90
2017-10-07T09:19:37.898Z,67.80
2017-10-07T09:22:06.239Z,68.20
2017-10-07T09:24:33.771Z,68.00
2017-10-07T09:27:01.299Z,66.00
2017-10-07T09:29:30.128Z,64.40
2017-10-07T09:31:57.733Z,64.10
2017-10-07T09:34:25.274Z,62.40
2017-10-07T09:36:52.980Z,62.70
2017-10-07T09:39:20.548Z,61.70
2017-10-07T09:41:48.126Z,62.80
2017-10-07T09:44:16.543Z,62.50
2017-10-07T09:46:44.068Z,62.60
2017-10-07T09:49:11.603Z,61.90
2017-10-07T09:51:39.159Z,59.50
2017-10-07T09:54:06.708Z,59.90
2017-10-07T09:56:35.021Z,60.00
2017-10-07T09:59:05.502Z,59.90
2017-10-07T10:01:33.840Z,60.10
2017-10-07T10:04:01.372Z,59.50
2017-10-07T10:06:31.603Z,57.60
2017-10-07T10:09:03.051Z,58.00
2017-10-07T10:11:31.141Z,57.90
2017-10-07T10:13:59.448Z,57.30
2017-10-07T10:16:26.984Z,56.20
2017-10-07T10:18:54.564Z,57.30
2017-10-07T10:21:22.100Z,56.10
2017-10-07T10:23:49.636Z,56.40
2017-10-07T10:26:24.109Z,57.50
2017-10-07T10:28:52.550Z,57.50
2017-10-07T10:31:20.074Z,58.00
2017-10-07T10:33:47.688Z,56.30
2017-10-07T10:36:16.498Z,56.60
2017-10-07T10:38:44.027Z,57.40
2017-10-07T10:41:11.658Z,57.40
2017-10-07T10:43:39.975Z,58.00
2017-10-07T10:46:08.275Z,59.10
2017-10-07T10:48:36.127Z,59.10
2017-10-07T10:51:04.222Z,60.30
2017-10-07T10:53:31.751Z,60.90
2017-10-07T10:55:59.322Z,61.50
2017-10-07T10:58:26.857Z,58.70
2017-10-07T11:00:55.215Z,57.00
2017-10-07T11:03:22.771Z,57.70
2017-10-07T11:05:51.063Z,57.10
2017-10-07T11:08:19.130Z,57.00
2017-10-07T11:10:46.750Z,57.80
2017-10-07T11:13:25.995Z,58.40
2017-10-07T11:18:28.687Z,59.50
2017-10-07T11:20:56.239Z,59.50
2017-10-07T11:23:23.774Z,59.00
2017-10-07T11:25:51.363Z,59.70
2017-10-07T11:28:18.910Z,59.70
2017-10-07T11:30:46.461Z,59.30
2017-10-07T11:33:16.684Z,58.50
2017-10-07T11:35:44.364Z,58.50
2017-10-07T11:38:11.918Z,58.20
2017-10-07T11:40:39.496Z,58.60
2017-10-07T11:43:07.038Z,56.20
2017-10-07T11:45:34.578Z,56.20
2017-10-07T11:48:02.160Z,58.10
2017-10-07T11:50:30.467Z,58.50
2017-10-07T11:52:57.990Z,58.40
2017-10-07T11:55:25.547Z,57.80
2017-10-07T11:57:53.138Z,55.40
2017-10-07T12:00:20.672Z,55.00
2017-10-07T12:02:48.223Z,56.20
2017-10-07T12:05:16.472Z,55.90
2017-10-07T12:07:44.000Z,56.80
2017-10-07T12:10:12.351Z,54.90
2017-10-07T12:12:39.882Z,54.80
2017-10-07T12:15:07.411Z,55.80
2017-10-07T12:17:34.974Z,56.50
2017-10-07T12:20:02.495Z,55.30
2017-10-07T12:22:30.030Z,56.00
2017-10-07T12:24:57.584Z,57.00
2017-10-07T12:27:25.115Z,56.30
2017-10-07T12:29:52.655Z,55.30
2017-10-07T12:32:21.003Z,54.80
2017-10-07T12:34:48.772Z,54.80
2017-10-07T12:37:16.427Z,54.70
2017-10-07T12:39:44.128Z,53.70
2017-10-07T12:42:11.691Z,53.70
2017-10-07T12:44:39.320Z,52.30
2017-10-07T12:47:11.039Z,52.20
2017-10-07T12:49:43.788Z,52.30
2017-10-07T12:55:05.625Z,52.70
2017-10-07T12:57:33.335Z,53.90
2017-10-07T13:00:02.850Z,55.40
2017-10-07T13:08:31.695Z,51.50
2017-10-07T13:11:07.607Z,51.00
2017-10-07T13:16:12.801Z,48.90
2017-10-07T13:18:41.380Z,50.60
2017-10-07T13:24:14.694Z,49.60
2017-10-07T13:26:46.358Z,49.20
2017-10-07T13:29:38.908Z,49.50
2017-10-07T13:32:14.975Z,48.70
2017-10-07T13:34:43.047Z,49.40
2017-10-07T13:37:10.885Z,50.40
2017-10-07T13:39:38.434Z,50.20
2017-10-07T13:42:06.013Z,51.00
2017-10-07T13:44:33.578Z,50.60
2017-10-07T13:47:02.620Z,50.20
2017-10-07T13:49:35.598Z,49.80
2017-10-07T13:52:03.385Z,49.70
2017-10-07T13:54:31.039Z,51.00
2017-10-07T13:56:59.279Z,50.90
2017-10-07T13:59:26.908Z,52.20
2017-10-07T14:01:54.449Z,51.70
2017-10-07T14:04:22.013Z,50.40
2017-10-07T14:06:49.543Z,50.40
2017-10-07T14:09:17.847Z,49.90
2017-10-07T14:11:45.455Z,49.90
2017-10-07T14:14:25.889Z,50.60
2017-10-07T14:21:09.816Z,51.90
2017-10-07T14:23:37.356Z,50.70
2017-10-07T14:26:04.882Z,50.50
2017-10-07T14:28:32.455Z,51.50
2017-10-07T14:30:59.987Z,51.10
2017-10-07T14:33:27.515Z,51.50
2017-10-07T14:35:55.860Z,50.80
2017-10-07T14:38:23.928Z,50.80
2017-10-07T14:40:51.464Z,51.20
2017-10-07T14:43:19.023Z,51.60
2017-10-07T14:45:46.559Z,52.50
2017-10-07T14:48:15.495Z,53.20
2017-10-07T14:50:43.083Z,52.20
2017-10-07T14:53:10.622Z,52.40
2017-10-07T14:55:38.147Z,53.00
2017-10-07T14:58:05.712Z,53.10
2017-10-07T15:00:33.242Z,53.00
2017-10-07T15:03:00.774Z,52.10
2017-10-07T15:05:28.352Z,53.30
2017-10-07T15:07:55.892Z,53.50
2017-10-07T15:10:23.433Z,53.70
2017-10-07T15:12:51.024Z,54.10
2017-10-07T15:15:18.551Z,54.30
2017-10-07T15:17:46.071Z,54.20
2017-10-07T15:20:15.375Z,55.00
2017-10-07T15:22:42.903Z,55.00
2017-10-07T15:25:11.203Z,55.00
2017-10-07T15:27:38.763Z,55.00
2017-10-07T15:30:06.295Z,55.30
2017-10-07T15:32:33.823Z,55.20
2017-10-07T15:35:01.409Z,55.40
2017-10-07T15:37:28.944Z,56.10
2017-10-07T15:39:56.547Z,57.40
2017-10-07T15:42:24.165Z,57.00
2017-10-07T15:44:52.324Z,55.60
2017-10-07T15:47:20.000Z,55.60
2017-10-07T15:49:47.803Z,56.60
2017-10-07T15:52:16.511Z,56.50
2017-10-07T15:54:44.076Z,56.70
2017-10-07T15:57:12.527Z,57.10
2017-10-07T15:59:40.863Z,57.10
2017-10-07T16:02:08.494Z,57.10
2017-10-07T16:04:36.131Z,57.70
2017-10-07T16:07:04.474Z,57.70
2017-10-07T16:09:32.075Z,57.70
2017-10-07T16:11:59.760Z,57.20
2017-10-07T16:14:27.471Z,57.50
2017-10-07T16:16:55.114Z,58.20
2017-10-07T16:19:22.764Z,58.30
2017-10-07T16:21:50.357Z,59.00
2017-10-07T16:24:17.992Z,58.70
2017-10-07T16:26:45.755Z,58.80
2017-10-07T16:29:25.196Z,58.80
2017-10-07T16:34:22.708Z,58.90
2017-10-07T16:36:50.280Z,58.70
2017-10-07T16:39:17.836Z,59.40
2017-10-07T16:41:45.967Z,59.10
2017-10-07T16:44:23.937Z,59.50
2017-10-07T16:55:18.812Z,59.50
2017-10-07T16:57:46.527Z,60.60
2017-10-07T17:00:24.893Z,60.40
2017-10-07T17:05:23.215Z,60.40
2017-10-07T17:07:50.780Z,61.10
2017-10-07T17:10:18.454Z,61.50
2017-10-07T17:12:45.983Z,60.90
2017-10-07T17:15:15.409Z,61.60
2017-10-07T17:17:42.948Z,61.60
2017-10-07T17:20:10.479Z,60.60
2017-10-07T17:22:38.087Z,60.70
2017-10-07T17:25:05.992Z,60.60
2017-10-07T17:27:34.298Z,60.50
2017-10-07T17:30:02.068Z,60.40
2017-10-07T17:32:29.605Z,60.60
2017-10-07T17:34:57.139Z,61.30
2017-10-07T17:37:25.462Z,61.50
2017-10-07T17:39:52.995Z,61.50
2017-10-07T17:42:24.390Z,61.40
2017-10-07T17:44:51.975Z,61.00
2017-10-07T17:47:19.506Z,60.80
2017-10-07T17:49:47.041Z,61.50
2017-10-07T17:52:15.598Z,62.00
2017-10-07T17:54:43.899Z,61.80
2017-10-07T17:57:11.435Z,61.80
2017-10-07T17:59:39.000Z,62.00
2017-10-07T18:02:07.301Z,61.40
2017-10-07T18:04:34.827Z,61.40
2017-10-07T18:07:03.175Z,61.40
2017-10-07T18:09:30.716Z,61.40
2017-10-07T18:11:58.244Z,61.80
2017-10-07T18:14:25.807Z,61.30
2017-10-07T18:16:53.339Z,60.90
2017-10-07T18:19:21.634Z,61.00
2017-10-07T18:21:49.951Z,60.80
2017-10-07T18:24:17.492Z,60.80
2017-10-07T18:26:45.028Z,60.70
2017-10-07T18:29:14.290Z,61.10
2017-10-07T18:31:41.815Z,61.00
2017-10-07T18:34:09.348Z,61.70
2017-10-07T18:36:37.665Z,61.50
2017-10-07T18:39:05.214Z,61.50
2017-10-07T18:41:32.752Z,61.40
2017-10-07T18:44:00.438Z,61.60
2017-10-07T18:46:27.971Z,62.40
2017-10-07T18:48:55.506Z,62.20
2017-10-07T18:51:23.855Z,62.50
2017-10-07T18:53:51.407Z,62.40
2017-10-07T18:56:18.944Z,62.40
2017-10-07T18:58:46.505Z,62.50
2017-10-07T19:01:15.472Z,62.30
2017-10-07T19:03:43.778Z,62.70
2017-10-07T19:06:11.339Z,62.70
2017-10-07T19:08:38.871Z,62.70
2017-10-07T19:11:07.173Z,63.10
2017-10-07T19:13:34.759Z,63.00
2017-10-07T19:16:02.295Z,63.60
2017-10-07T19:18:29.831Z,63.30
2017-10-07T19:20:57.398Z,63.50
2017-10-07T19:23:24.924Z,64.00
2017-10-07T19:25:52.454Z,63.80
2017-10-07T19:28:20.007Z,63.90
2017-10-07T19:30:47.534Z,62.90
2017-10-07T19:33:16.466Z,62.50
2017-10-07T19:35:44.038Z,62.10
2017-10-07T19:38:11.563Z,63.00
2017-10-07T19:40:39.086Z,62.60
2017-10-07T19:43:06.631Z,62.50
2017-10-07T19:45:34.162Z,62.60
2017-10-07T19:48:01.693Z,62.60
2017-10-07T19:50:29.271Z,62.40
2017-10-07T19:52:57.903Z,62.70
2017-10-07T19:55:25.479Z,62.70
2017-10-07T19:57:53.310Z,63.00
2017-10-07T20:00:20.871Z,63.00
2017-10-07T20:02:48.403Z,63.30
2017-10-07T20:05:16.519Z,63.00
2017-10-07T20:07:44.824Z,63.20
2017-10-07T20:10:12.480Z,63.20
2017-10-07T20:12:40.067Z,63.20
2017-10-07T20:15:07.603Z,63.70
2017-10-07T20:17:35.156Z,63.50
2017-10-07T20:20:03.533Z,64.80
2017-10-07T20:22:31.840Z,64.20
2017-10-07T20:24:59.404Z,64.20
2017-10-07T20:27:26.959Z,64.50
2017-10-07T20:29:54.499Z,64.50
2017-10-07T20:32:22.035Z,65.10
2017-10-07T20:34:49.615Z,65.40
2017-10-07T20:37:17.179Z,65.80
2017-10-07T20:39:44.716Z,65.80
2017-10-07T20:42:12.495Z,65.90
2017-10-07T20:44:40.040Z,65.80
2017-10-07T20:47:09.123Z,65.70
2017-10-07T20:49:37.147Z,65.60
2017-10-07T20:52:04.674Z,65.70
2017-10-07T20:54:32.976Z,64.40
2017-10-07T20:57:00.535Z,64.40
2017-10-07T20:59:28.064Z,63.60
2017-10-07T21:01:56.364Z,62.80
2017-10-07T21:04:24.720Z,62.00
2017-10-07T21:06:53.020Z,61.30
2017-10-07T21:09:20.547Z,61.20
2017-10-07T21:11:48.111Z,59.50
2017-10-07T21:14:16.454Z,59.00
2017-10-07T21:16:43.996Z,58.90
2017-10-07T21:19:11.577Z,59.00
2017-10-07T21:21:39.116Z,59.00
2017-10-07T21:24:06.659Z,58.60
2017-10-07T21:26:34.282Z,58.40
2017-10-07T21:29:01.819Z,58.50
2017-10-07T21:31:29.355Z,58.00
2017-10-07T21:33:56.968Z,57.70
2017-10-07T21:36:25.268Z,58.00
2017-10-07T21:38:52.799Z,58.00
2017-10-07T21:41:20.381Z,58.30
2017-10-07T21:43:48.671Z,58.50
2017-10-07T21:46:17.255Z,59.20
2017-10-07T21:48:45.363Z,58.60
2017-10-07T21:51:24.376Z,58.40
2017-10-07T21:57:43.400Z,58.60
2017-10-07T22:00:10.928Z,58.40
2017-10-07T22:02:38.463Z,58.70
2017-10-07T22:05:06.036Z,58.90
2017-10-07T22:07:33.575Z,58.70
2017-10-07T22:10:01.920Z,58.50
2017-10-07T22:12:29.508Z,58.50
2017-10-07T22:14:57.800Z,58.50
2017-10-07T22:17:25.332Z,58.50
2017-10-07T22:19:53.659Z,58.60
2017-10-07T22:22:21.190Z,58.50
2017-10-07T22:24:48.718Z,59.20
2017-10-07T22:27:16.508Z,58.90
2017-10-07T22:29:44.808Z,59.30
2017-10-07T22:32:12.335Z,59.40
2017-10-07T22:34:40.663Z,60.10
2017-10-07T22:37:08.195Z,60.00
2017-10-07T22:39:35.732Z,59.90
2017-10-07T22:42:04.066Z,60.40
2017-10-07T22:44:31.590Z,60.40
2017-10-07T22:46:59.132Z,60.30
2017-10-07T22:49:26.964Z,59.70
2017-10-07T22:51:54.496Z,60.40
2017-10-07T22:54:22.020Z,60.80
2017-10-07T22:56:49.572Z,60.70
2017-10-07T22:59:17.099Z,60.40
2017-10-07T23:01:44.631Z,60.70
2017-10-07T23:04:12.178Z,61.20
2017-10-07T23:06:39.711Z,61.30
2017-10-07T23:09:08.003Z,62.00
2017-10-07T23:11:35.579Z,62.00
2017-10-07T23:14:03.883Z,62.60
2017-10-07T23:16:31.421Z,62.60
2017-10-07T23:18:59.742Z,65.10
2017-10-07T23:21:27.280Z,65.00
2017-10-07T23:23:54.802Z,66.10
2017-10-07T23:26:22.356Z,69.20
2017-10-07T23:28:49.890Z,70.60
2017-10-07T23:31:17.418Z,71.00
2017-10-07T23:33:44.988Z,73.60
2017-10-07T23:36:12.506Z,74.80
2017-10-07T23:38:40.039Z,76.10
2017-10-07T23:41:08.367Z,77.30
2017-10-07T23:43:35.891Z,77.20
2017-10-07T23:46:03.415Z,77.80
2017-10-07T23:48:30.983Z,78.30
2017-10-07T23:50:58.655Z,78.80
2017-10-07T23:53:26.946Z,79.50
2017-10-07T23:55:54.530Z,79.50
2017-10-07T23:58:22.059Z,79.70
